sensor_id;sensor_type;location;lat;lon;timestamp;pressure;altitude;pressure_sealevel;temperature;humidity
20023;BME280;10172;42.054;24.546;2022-09-09T00:01:19;98341.56;;;17.51;100.00
20023;BME280;10172;42.054;24.546;2022-09-09T00:03:55;98351.69;;;18.13;100.00
20023;BME280;10172;42.054;24.546;2022-09-09T00:06:43;98344.72;;;17.83;100.00
20023;BME280;10172;42.054;24.546;2022-09-09T00:09:16;98350.03;;;18.29;100.00
20023;BME280;10172;42.054;24.546;2022-09-09T00:14:23;98339.41;;;18.55;100.00
20023;BME280;10172;42.054;24.546;2022-09-09T00:16:56;98340.28;;;17.45;100.00
20023;BME280;10172;42.054;24.546;2022-09-09T00:19:56;98347.06;;;18.77;100.00
20023;BME280;10172;42.054;24.546;2022-09-09T00:22:26;98339.53;;;19.42;100.00
20023;BME280;10172;42.054;24.546;2022-09-09T00:24:54;98336.31;;;19.21;100.00
20023;BME280;10172;42.054;24.546;2022-09-09T00:27:26;98355.66;;;18.98;100.00
20023;BME280;10172;42.054;24.546;2022-09-09T00:32:45;98363.44;;;18.48;100.00
20023;BME280;10172;42.054;24.546;2022-09-09T00:35:27;98357.94;;;18.04;100.00
20023;BME280;10172;42.054;24.546;2022-09-09T00:37:57;98351.00;;;18.38;100.00
20023;BME280;10172;42.054;24.546;2022-09-09T00:40:33;98350.50;;;17.32;100.00
20023;BME280;10172;42.054;24.546;2022-09-09T00:43:24;98355.34;;;17.19;100.00
20023;BME280;10172;42.054;24.546;2022-09-09T00:52:02;98358.13;;;17.37;100.00
20023;BME280;10172;42.054;24.546;2022-09-09T00:54:34;98365.19;;;17.66;100.00
20023;BME280;10172;42.054;24.546;2022-09-09T00:57:11;98363.00;;;18.16;100.00
20023;BME280;10172;42.054;24.546;2022-09-09T01:02:39;98365.50;;;17.06;100.00
20023;BME280;10172;42.054;24.546;2022-09-09T01:05:21;98359.56;;;16.73;100.00
20023;BME280;10172;42.054;24.546;2022-09-09T01:07:51;98358.41;;;17.33;100.00
20023;BME280;10172;42.054;24.546;2022-09-09T01:10:36;98352.38;;;17.03;100.00
20023;BME280;10172;42.054;24.546;2022-09-09T01:13:14;98355.91;;;17.03;100.00
20023;BME280;10172;42.054;24.546;2022-09-09T01:15:41;98347.72;;;17.05;100.00
20023;BME280;10172;42.054;24.546;2022-09-09T01:18:12;98341.66;;;16.84;100.00
20023;BME280;10172;42.054;24.546;2022-09-09T01:20:49;98339.50;;;16.87;100.00
20023;BME280;10172;42.054;24.546;2022-09-09T01:28:58;98339.22;;;17.19;100.00
20023;BME280;10172;42.054;24.546;2022-09-09T01:31:31;98350.41;;;17.80;100.00
20023;BME280;10172;42.054;24.546;2022-09-09T01:33:58;98354.19;;;17.31;100.00
20023;BME280;10172;42.054;24.546;2022-09-09T01:36:29;98360.75;;;17.75;100.00
20023;BME280;10172;42.054;24.546;2022-09-09T01:38:58;98346.72;;;17.81;100.00
20023;BME280;10172;42.054;24.546;2022-09-09T01:41:24;98351.09;;;17.07;100.00
20023;BME280;10172;42.054;24.546;2022-09-09T01:43:49;98345.66;;;16.49;100.00
20023;BME280;10172;42.054;24.546;2022-09-09T01:46:17;98337.25;;;16.73;100.00
20023;BME280;10172;42.054;24.546;2022-09-09T01:48:45;98337.13;;;16.84;100.00
20023;BME280;10172;42.054;24.546;2022-09-09T01:51:10;98335.47;;;16.24;100.00
20023;BME280;10172;42.054;24.546;2022-09-09T01:53:37;98345.00;;;16.95;100.00
20023;BME280;10172;42.054;24.546;2022-09-09T01:58:47;98341.75;;;17.30;100.00
20023;BME280;10172;42.054;24.546;2022-09-09T02:03:59;98328.19;;;16.74;100.00
20023;BME280;10172;42.054;24.546;2022-09-09T02:09:00;98336.00;;;16.67;100.00
20023;BME280;10172;42.054;24.546;2022-09-09T02:11:28;98336.91;;;17.33;100.00
20023;BME280;10172;42.054;24.546;2022-09-09T02:13:57;98328.78;;;17.53;100.00
20023;BME280;10172;42.054;24.546;2022-09-09T02:16:34;98328.50;;;17.65;100.00
20023;BME280;10172;42.054;24.546;2022-09-09T02:19:11;98332.09;;;17.56;100.00
20023;BME280;10172;42.054;24.546;2022-09-09T02:21:42;98316.56;;;17.21;100.00
20023;BME280;10172;42.054;24.546;2022-09-09T02:24:11;98319.41;;;16.82;100.00
20023;BME280;10172;42.054;24.546;2022-09-09T02:26:40;98324.19;;;16.49;100.00
20023;BME280;10172;42.054;24.546;2022-09-09T02:29:17;98319.81;;;17.06;100.00
20023;BME280;10172;42.054;24.546;2022-09-09T02:31:45;98334.00;;;16.89;100.00
20023;BME280;10172;42.054;24.546;2022-09-09T02:34:13;98331.31;;;17.08;100.00
20023;BME280;10172;42.054;24.546;2022-09-09T02:36:42;98342.34;;;17.05;100.00
20023;BME280;10172;42.054;24.546;2022-09-09T02:39:11;98338.09;;;17.02;100.00
20023;BME280;10172;42.054;24.546;2022-09-09T02:41:39;98339.22;;;16.81;100.00
20023;BME280;10172;42.054;24.546;2022-09-09T02:44:12;98342.47;;;16.55;100.00
20023;BME280;10172;42.054;24.546;2022-09-09T02:47:03;98350.00;;;15.82;100.00
20023;BME280;10172;42.054;24.546;2022-09-09T02:54:58;98357.41;;;16.48;100.00
20023;BME280;10172;42.054;24.546;2022-09-09T02:57:30;98345.59;;;16.80;100.00
20023;BME280;10172;42.054;24.546;2022-09-09T02:59:58;98346.81;;;17.33;100.00
20023;BME280;10172;42.054;24.546;2022-09-09T03:02:23;98347.94;;;17.59;100.00
20023;BME280;10172;42.054;24.546;2022-09-09T03:04:49;98343.59;;;17.01;100.00
20023;BME280;10172;42.054;24.546;2022-09-09T03:07:18;98357.91;;;16.92;100.00
20023;BME280;10172;42.054;24.546;2022-09-09T03:09:44;98351.13;;;16.78;100.00
20023;BME280;10172;42.054;24.546;2022-09-09T03:12:11;98350.41;;;17.05;100.00
20023;BME280;10172;42.054;24.546;2022-09-09T03:14:37;98351.25;;;16.96;100.00
20023;BME280;10172;42.054;24.546;2022-09-09T03:17:04;98355.63;;;17.16;100.00
20023;BME280;10172;42.054;24.546;2022-09-09T03:19:29;98368.91;;;17.17;100.00
20023;BME280;10172;42.054;24.546;2022-09-09T03:21:55;98378.53;;;17.20;100.00
20023;BME280;10172;42.054;24.546;2022-09-09T03:24:21;98363.69;;;16.97;100.00
20023;BME280;10172;42.054;24.546;2022-09-09T03:26:48;98372.03;;;17.32;100.00
20023;BME280;10172;42.054;24.546;2022-09-09T03:29:13;98376.84;;;17.09;100.00
20023;BME280;10172;42.054;24.546;2022-09-09T03:31:40;98381.91;;;17.41;100.00
20023;BME280;10172;42.054;24.546;2022-09-09T03:34:05;98373.28;;;17.09;100.00
20023;BME280;10172;42.054;24.546;2022-09-09T03:36:31;98378.84;;;16.79;100.00
20023;BME280;10172;42.054;24.546;2022-09-09T03:38:57;98375.97;;;17.28;100.00
20023;BME280;10172;42.054;24.546;2022-09-09T03:41:23;98374.28;;;17.27;100.00
20023;BME280;10172;42.054;24.546;2022-09-09T03:43:52;98387.03;;;16.67;100.00
20023;BME280;10172;42.054;24.546;2022-09-09T03:46:20;98373.34;;;16.00;100.00
20023;BME280;10172;42.054;24.546;2022-09-09T03:48:45;98365.47;;;15.69;100.00
20023;BME280;10172;42.054;24.546;2022-09-09T03:51:11;98366.06;;;16.12;100.00
20023;BME280;10172;42.054;24.546;2022-09-09T03:53:37;98354.34;;;16.53;100.00
20023;BME280;10172;42.054;24.546;2022-09-09T03:56:04;98374.00;;;16.72;100.00
20023;BME280;10172;42.054;24.546;2022-09-09T03:58:35;98367.78;;;16.72;100.00
20023;BME280;10172;42.054;24.546;2022-09-09T04:01:04;98371.94;;;15.25;100.00
20023;BME280;10172;42.054;24.546;2022-09-09T04:03:30;98361.72;;;16.21;100.00
20023;BME280;10172;42.054;24.546;2022-09-09T04:05:57;98364.41;;;16.80;100.00
20023;BME280;10172;42.054;24.546;2022-09-09T04:08:23;98348.34;;;15.90;100.00
20023;BME280;10172;42.054;24.546;2022-09-09T04:10:53;98352.50;;;15.74;100.00
20023;BME280;10172;42.054;24.546;2022-09-09T04:13:19;98360.56;;;16.53;100.00
20023;BME280;10172;42.054;24.546;2022-09-09T04:15:54;98370.78;;;16.79;100.00
20023;BME280;10172;42.054;24.546;2022-09-09T04:18:20;98370.34;;;16.24;100.00
20023;BME280;10172;42.054;24.546;2022-09-09T04:20:47;98367.09;;;16.30;100.00
20023;BME280;10172;42.054;24.546;2022-09-09T04:23:13;98363.75;;;16.47;100.00
20023;BME280;10172;42.054;24.546;2022-09-09T04:25:44;98363.44;;;16.31;100.00
20023;BME280;10172;42.054;24.546;2022-09-09T04:28:09;98374.72;;;16.74;100.00
20023;BME280;10172;42.054;24.546;2022-09-09T04:30:35;98383.38;;;16.38;100.00
20023;BME280;10172;42.054;24.546;2022-09-09T04:33:01;98382.94;;;15.93;100.00
20023;BME280;10172;42.054;24.546;2022-09-09T04:35:26;98391.34;;;16.09;100.00
20023;BME280;10172;42.054;24.546;2022-09-09T04:37:52;98387.56;;;16.61;100.00
20023;BME280;10172;42.054;24.546;2022-09-09T04:40:17;98383.34;;;16.78;100.00
20023;BME280;10172;42.054;24.546;2022-09-09T04:42:43;98382.53;;;16.38;100.00
20023;BME280;10172;42.054;24.546;2022-09-09T04:45:09;98386.59;;;17.20;100.00
20023;BME280;10172;42.054;24.546;2022-09-09T04:47:36;98388.72;;;16.88;100.00
20023;BME280;10172;42.054;24.546;2022-09-09T04:50:02;98397.06;;;17.32;100.00
20023;BME280;10172;42.054;24.546;2022-09-09T04:52:28;98397.34;;;17.01;100.00
20023;BME280;10172;42.054;24.546;2022-09-09T04:54:53;98403.97;;;16.28;100.00
20023;BME280;10172;42.054;24.546;2022-09-09T04:57:19;98400.22;;;16.50;100.00
20023;BME280;10172;42.054;24.546;2022-09-09T04:59:45;98396.16;;;16.15;100.00
20023;BME280;10172;42.054;24.546;2022-09-09T05:02:11;98411.06;;;16.29;100.00
20023;BME280;10172;42.054;24.546;2022-09-09T05:04:36;98403.09;;;15.88;100.00
20023;BME280;10172;42.054;24.546;2022-09-09T05:07:02;98403.88;;;16.39;100.00
20023;BME280;10172;42.054;24.546;2022-09-09T05:09:27;98395.53;;;17.30;100.00
20023;BME280;10172;42.054;24.546;2022-09-09T05:11:53;98390.41;;;17.37;100.00
20023;BME280;10172;42.054;24.546;2022-09-09T05:14:18;98387.88;;;17.54;100.00
20023;BME280;10172;42.054;24.546;2022-09-09T05:16:46;98401.56;;;17.70;100.00
20023;BME280;10172;42.054;24.546;2022-09-09T05:19:12;98398.44;;;18.12;100.00
20023;BME280;10172;42.054;24.546;2022-09-09T05:21:38;98405.47;;;18.77;100.00
20023;BME280;10172;42.054;24.546;2022-09-09T05:24:03;98414.28;;;18.15;100.00
20023;BME280;10172;42.054;24.546;2022-09-09T05:26:29;98411.50;;;18.88;100.00
20023;BME280;10172;42.054;24.546;2022-09-09T05:28:55;98409.59;;;19.34;100.00
20023;BME280;10172;42.054;24.546;2022-09-09T05:31:20;98410.28;;;19.18;100.00
20023;BME280;10172;42.054;24.546;2022-09-09T05:33:47;98411.91;;;19.29;100.00
20023;BME280;10172;42.054;24.546;2022-09-09T05:36:17;98408.44;;;19.19;100.00
20023;BME280;10172;42.054;24.546;2022-09-09T05:38:43;98419.97;;;19.38;100.00
20023;BME280;10172;42.054;24.546;2022-09-09T05:41:10;98425.16;;;19.22;100.00
20023;BME280;10172;42.054;24.546;2022-09-09T05:43:41;98426.28;;;18.84;100.00
20023;BME280;10172;42.054;24.546;2022-09-09T05:46:09;98420.97;;;18.92;100.00
20023;BME280;10172;42.054;24.546;2022-09-09T05:48:38;98412.00;;;18.57;100.00
20023;BME280;10172;42.054;24.546;2022-09-09T05:51:05;98412.50;;;19.23;100.00
20023;BME280;10172;42.054;24.546;2022-09-09T05:53:32;98417.53;;;19.18;100.00
20023;BME280;10172;42.054;24.546;2022-09-09T05:56:02;98420.69;;;19.13;100.00
20023;BME280;10172;42.054;24.546;2022-09-09T05:58:32;98410.53;;;18.89;100.00
20023;BME280;10172;42.054;24.546;2022-09-09T06:01:06;98394.34;;;18.89;100.00
20023;BME280;10172;42.054;24.546;2022-09-09T06:03:34;98385.38;;;18.71;100.00
20023;BME280;10172;42.054;24.546;2022-09-09T06:06:01;98380.88;;;19.07;100.00
20023;BME280;10172;42.054;24.546;2022-09-09T06:08:27;98369.66;;;19.37;100.00
20023;BME280;10172;42.054;24.546;2022-09-09T06:11:00;98371.59;;;19.62;100.00
20023;BME280;10172;42.054;24.546;2022-09-09T06:13:27;98370.28;;;20.00;100.00
20023;BME280;10172;42.054;24.546;2022-09-09T06:15:53;98379.91;;;20.28;100.00
20023;BME280;10172;42.054;24.546;2022-09-09T06:18:19;98379.91;;;19.77;100.00
20023;BME280;10172;42.054;24.546;2022-09-09T06:20:55;98380.81;;;20.19;100.00
20023;BME280;10172;42.054;24.546;2022-09-09T06:23:20;98393.66;;;20.17;100.00
20023;BME280;10172;42.054;24.546;2022-09-09T06:25:46;98383.59;;;20.27;100.00
20023;BME280;10172;42.054;24.546;2022-09-09T06:28:12;98391.31;;;21.14;100.00
20023;BME280;10172;42.054;24.546;2022-09-09T06:30:38;98401.47;;;21.69;100.00
20023;BME280;10172;42.054;24.546;2022-09-09T06:33:05;98406.66;;;22.19;100.00
20023;BME280;10172;42.054;24.546;2022-09-09T06:35:30;98402.38;;;22.32;100.00
20023;BME280;10172;42.054;24.546;2022-09-09T06:37:55;98406.19;;;21.99;100.00
20023;BME280;10172;42.054;24.546;2022-09-09T06:40:24;98400.78;;;21.18;100.00
20023;BME280;10172;42.054;24.546;2022-09-09T06:42:49;98405.84;;;22.02;100.00
20023;BME280;10172;42.054;24.546;2022-09-09T06:45:15;98404.97;;;22.10;100.00
20023;BME280;10172;42.054;24.546;2022-09-09T06:47:40;98398.38;;;20.99;100.00
20023;BME280;10172;42.054;24.546;2022-09-09T06:50:07;98409.59;;;21.93;100.00
20023;BME280;10172;42.054;24.546;2022-09-09T06:52:33;98421.25;;;22.56;100.00
20023;BME280;10172;42.054;24.546;2022-09-09T06:55:00;98407.91;;;21.52;100.00
20023;BME280;10172;42.054;24.546;2022-09-09T06:57:25;98411.94;;;21.15;100.00
20023;BME280;10172;42.054;24.546;2022-09-09T06:59:51;98397.44;;;21.32;100.00
20023;BME280;10172;42.054;24.546;2022-09-09T07:02:16;98401.47;;;21.61;100.00
20023;BME280;10172;42.054;24.546;2022-09-09T07:04:42;98402.66;;;21.42;100.00
20023;BME280;10172;42.054;24.546;2022-09-09T07:07:08;98402.66;;;21.66;100.00
20023;BME280;10172;42.054;24.546;2022-09-09T07:09:34;98421.25;;;22.56;100.00
20023;BME280;10172;42.054;24.546;2022-09-09T07:12:00;98418.06;;;22.45;100.00
20023;BME280;10172;42.054;24.546;2022-09-09T07:14:26;98414.28;;;22.15;100.00
20023;BME280;10172;42.054;24.546;2022-09-09T07:16:52;98408.50;;;22.26;100.00
20023;BME280;10172;42.054;24.546;2022-09-09T07:19:17;98407.97;;;22.78;100.00
20023;BME280;10172;42.054;24.546;2022-09-09T07:21:43;98405.25;;;23.31;100.00
20023;BME280;10172;42.054;24.546;2022-09-09T07:24:09;98411.94;;;23.20;100.00
20023;BME280;10172;42.054;24.546;2022-09-09T07:26:35;98406.88;;;22.48;100.00
20023;BME280;10172;42.054;24.546;2022-09-09T07:29:01;98417.22;;;23.22;100.00
20023;BME280;10172;42.054;24.546;2022-09-09T07:31:29;98416.16;;;23.00;96.93
20023;BME280;10172;42.054;24.546;2022-09-09T07:33:59;98402.84;;;23.82;89.22
20023;BME280;10172;42.054;24.546;2022-09-09T07:36:39;98402.53;;;24.28;82.84
20023;BME280;10172;42.054;24.546;2022-09-09T07:39:10;98394.63;;;23.67;85.02
20023;BME280;10172;42.054;24.546;2022-09-09T07:41:43;98396.75;;;23.94;82.59
20023;BME280;10172;42.054;24.546;2022-09-09T07:44:11;98388.63;;;23.57;84.23
20023;BME280;10172;42.054;24.546;2022-09-09T07:46:37;98395.72;;;23.35;86.94
20023;BME280;10172;42.054;24.546;2022-09-09T07:49:05;98385.41;;;23.31;86.61
20023;BME280;10172;42.054;24.546;2022-09-09T07:51:37;98380.69;;;23.85;83.28
20023;BME280;10172;42.054;24.546;2022-09-09T07:54:05;98381.09;;;24.69;79.54
20023;BME280;10172;42.054;24.546;2022-09-09T07:56:31;98377.56;;;24.83;78.29
20023;BME280;10172;42.054;24.546;2022-09-09T07:58:58;98369.09;;;24.78;76.16
20023;BME280;10172;42.054;24.546;2022-09-09T08:01:30;98372.88;;;24.33;77.51
20023;BME280;10172;42.054;24.546;2022-09-09T08:04:00;98370.81;;;23.92;79.89
20023;BME280;10172;42.054;24.546;2022-09-09T08:06:28;98372.47;;;23.41;85.33
20023;BME280;10172;42.054;24.546;2022-09-09T08:08:54;98370.00;;;24.35;80.62
20023;BME280;10172;42.054;24.546;2022-09-09T08:11:21;98371.75;;;25.29;75.82
20023;BME280;10172;42.054;24.546;2022-09-09T08:13:48;98366.34;;;24.28;78.57
20023;BME280;10172;42.054;24.546;2022-09-09T08:16:20;98363.97;;;25.05;76.72
20023;BME280;10172;42.054;24.546;2022-09-09T08:18:50;98358.22;;;23.16;83.28
20023;BME280;10172;42.054;24.546;2022-09-09T08:21:22;98360.25;;;23.59;83.57
20023;BME280;10172;42.054;24.546;2022-09-09T08:23:51;98361.06;;;24.56;78.50
20023;BME280;10172;42.054;24.546;2022-09-09T08:26:25;98369.22;;;24.70;78.26
20023;BME280;10172;42.054;24.546;2022-09-09T08:28:54;98349.84;;;25.58;75.97
20023;BME280;10172;42.054;24.546;2022-09-09T08:31:43;98353.81;;;26.11;69.63
20023;BME280;10172;42.054;24.546;2022-09-09T08:34:10;98364.59;;;26.26;69.45
20023;BME280;10172;42.054;24.546;2022-09-09T08:36:44;98364.22;;;26.29;67.37
20023;BME280;10172;42.054;24.546;2022-09-09T08:39:11;98363.03;;;26.85;65.29
20023;BME280;10172;42.054;24.546;2022-09-09T08:44:16;98364.97;;;27.04;65.03
20023;BME280;10172;42.054;24.546;2022-09-09T08:52:37;98350.13;;;26.66;64.74
20023;BME280;10172;42.054;24.546;2022-09-09T08:55:20;98353.50;;;26.68;65.96
20023;BME280;10172;42.054;24.546;2022-09-09T08:57:51;98341.88;;;27.00;64.01
20023;BME280;10172;42.054;24.546;2022-09-09T09:00:18;98344.22;;;27.16;63.17
20023;BME280;10172;42.054;24.546;2022-09-09T09:11:03;98331.69;;;26.74;65.73
20023;BME280;10172;42.054;24.546;2022-09-09T09:16:36;98324.72;;;27.72;61.87
20023;BME280;10172;42.054;24.546;2022-09-09T09:19:04;98304.94;;;27.24;61.76
20023;BME280;10172;42.054;24.546;2022-09-09T09:24:29;98300.94;;;27.20;62.94
20023;BME280;10172;42.054;24.546;2022-09-09T09:26:52;98315.06;;;26.63;65.03
20023;BME280;10172;42.054;24.546;2022-09-09T09:29:19;98299.56;;;26.23;66.78
20023;BME280;10172;42.054;24.546;2022-09-09T09:31:52;98308.91;;;27.02;64.98
20023;BME280;10172;42.054;24.546;2022-09-09T09:34:22;98296.94;;;28.08;63.32
20023;BME280;10172;42.054;24.546;2022-09-09T09:36:59;98299.53;;;28.54;59.65
20023;BME280;10172;42.054;24.546;2022-09-09T09:39:33;98301.88;;;28.43;58.36
20023;BME280;10172;42.054;24.546;2022-09-09T09:42:16;98294.75;;;29.18;57.72
20023;BME280;10172;42.054;24.546;2022-09-09T09:44:43;98287.28;;;29.38;56.61
20023;BME280;10172;42.054;24.546;2022-09-09T09:47:19;98285.94;;;29.16;57.49
20023;BME280;10172;42.054;24.546;2022-09-09T09:50:18;98279.97;;;29.50;56.93
20023;BME280;10172;42.054;24.546;2022-09-09T09:52:53;98272.28;;;29.66;56.18
20023;BME280;10172;42.054;24.546;2022-09-09T09:55:19;98267.91;;;29.33;55.68
20023;BME280;10172;42.054;24.546;2022-09-09T09:57:45;98272.94;;;29.05;56.64
20023;BME280;10172;42.054;24.546;2022-09-09T10:00:15;98268.59;;;29.72;55.75
20023;BME280;10172;42.054;24.546;2022-09-09T10:02:44;98261.56;;;29.08;56.90
20023;BME280;10172;42.054;24.546;2022-09-09T10:05:25;98259.28;;;28.67;57.64
20023;BME280;10172;42.054;24.546;2022-09-09T10:08:01;98256.97;;;28.95;57.00
20023;BME280;10172;42.054;24.546;2022-09-09T10:13:20;98260.66;;;29.14;57.65
20023;BME280;10172;42.054;24.546;2022-09-09T10:23:59;98270.34;;;28.34;59.35
20023;BME280;10172;42.054;24.546;2022-09-09T10:29:26;98260.75;;;28.19;61.10
20023;BME280;10172;42.054;24.546;2022-09-09T10:40:20;98259.47;;;30.02;56.32
20023;BME280;10172;42.054;24.546;2022-09-09T10:42:46;98247.13;;;30.30;53.48
20023;BME280;10172;42.054;24.546;2022-09-09T10:45:21;98249.94;;;30.05;55.89
20023;BME280;10172;42.054;24.546;2022-09-09T10:50:57;98249.78;;;30.00;57.08
20023;BME280;10172;42.054;24.546;2022-09-09T10:53:35;98253.72;;;30.88;53.75
20023;BME280;10172;42.054;24.546;2022-09-09T10:56:10;98238.50;;;31.04;53.47
20023;BME280;10172;42.054;24.546;2022-09-09T11:01:22;98233.34;;;30.00;56.29
20023;BME280;10172;42.054;24.546;2022-09-09T11:03:54;98234.63;;;29.54;57.13
20023;BME280;10172;42.054;24.546;2022-09-09T11:06:30;98227.69;;;30.13;56.97
20023;BME280;10172;42.054;24.546;2022-09-09T11:08:58;98231.25;;;30.32;54.23
20023;BME280;10172;42.054;24.546;2022-09-09T11:19:20;98220.84;;;30.22;57.50
20023;BME280;10172;42.054;24.546;2022-09-09T11:21:50;98220.59;;;30.71;55.42
20023;BME280;10172;42.054;24.546;2022-09-09T11:27:25;98227.31;;;30.46;55.72
20023;BME280;10172;42.054;24.546;2022-09-09T11:36:05;98216.09;;;29.93;56.09
20023;BME280;10172;42.054;24.546;2022-09-09T11:41:39;98207.75;;;28.89;60.82
20023;BME280;10172;42.054;24.546;2022-09-09T11:44:31;98212.34;;;28.64;61.14
20023;BME280;10172;42.054;24.546;2022-09-09T11:46:56;98200.91;;;27.78;65.11
20023;BME280;10172;42.054;24.546;2022-09-09T11:49:39;98200.56;;;27.55;65.01
20023;BME280;10172;42.054;24.546;2022-09-09T11:52:34;98197.81;;;27.48;66.81
20023;BME280;10172;42.054;24.546;2022-09-09T11:55:09;98193.50;;;27.85;65.11
20023;BME280;10172;42.054;24.546;2022-09-09T11:57:37;98196.78;;;27.16;67.64
20023;BME280;10172;42.054;24.546;2022-09-09T12:00:04;98198.66;;;27.09;67.91
20023;BME280;10172;42.054;24.546;2022-09-09T12:02:30;98191.94;;;27.45;67.61
20023;BME280;10172;42.054;24.546;2022-09-09T12:05:11;98192.22;;;28.83;62.33
20023;BME280;10172;42.054;24.546;2022-09-09T12:13:17;98181.41;;;27.35;66.67
20023;BME280;10172;42.054;24.546;2022-09-09T12:15:49;98173.84;;;27.57;65.09
20023;BME280;10172;42.054;24.546;2022-09-09T12:18:32;98167.41;;;28.02;64.22
20023;BME280;10172;42.054;24.546;2022-09-09T12:23:40;98161.94;;;29.70;59.21
20023;BME280;10172;42.054;24.546;2022-09-09T12:26:31;98167.31;;;29.40;58.85
20023;BME280;10172;42.054;24.546;2022-09-09T12:29:14;98168.06;;;29.29;59.67
20023;BME280;10172;42.054;24.546;2022-09-09T12:32:06;98170.22;;;29.45;59.04
20023;BME280;10172;42.054;24.546;2022-09-09T12:34:46;98159.13;;;29.09;60.24
20023;BME280;10172;42.054;24.546;2022-09-09T12:40:00;98157.63;;;28.88;61.35
20023;BME280;10172;42.054;24.546;2022-09-09T12:42:27;98163.47;;;28.74;61.13
20023;BME280;10172;42.054;24.546;2022-09-09T12:44:58;98157.38;;;27.83;64.82
20023;BME280;10172;42.054;24.546;2022-09-09T12:47:33;98158.66;;;27.74;65.32
20023;BME280;10172;42.054;24.546;2022-09-09T12:50:03;98150.34;;;27.43;67.06
20023;BME280;10172;42.054;24.546;2022-09-09T12:52:35;98146.97;;;27.21;68.15
20023;BME280;10172;42.054;24.546;2022-09-09T12:55:04;98144.88;;;27.29;67.78
20023;BME280;10172;42.054;24.546;2022-09-09T12:57:35;98152.41;;;27.54;66.98
20023;BME280;10172;42.054;24.546;2022-09-09T13:00:17;98139.19;;;28.02;65.81
20023;BME280;10172;42.054;24.546;2022-09-09T13:03:03;98153.78;;;28.33;64.07
20023;BME280;10172;42.054;24.546;2022-09-09T13:05:39;98137.47;;;28.52;63.41
20023;BME280;10172;42.054;24.546;2022-09-09T13:08:08;98140.16;;;28.58;62.79
20023;BME280;10172;42.054;24.546;2022-09-09T13:10:51;98127.81;;;28.80;61.25
20023;BME280;10172;42.054;24.546;2022-09-09T13:13:26;98126.97;;;29.29;60.04
20023;BME280;10172;42.054;24.546;2022-09-09T13:15:59;98127.59;;;29.68;58.86
20023;BME280;10172;42.054;24.546;2022-09-09T13:18:40;98117.97;;;29.77;58.59
20023;BME280;10172;42.054;24.546;2022-09-09T13:21:05;98117.13;;;30.12;57.54
20023;BME280;10172;42.054;24.546;2022-09-09T13:23:36;98124.56;;;29.94;57.31
20023;BME280;10172;42.054;24.546;2022-09-09T13:26:03;98117.25;;;30.06;58.27
20023;BME280;10172;42.054;24.546;2022-09-09T13:28:31;98115.03;;;29.60;59.60
20023;BME280;10172;42.054;24.546;2022-09-09T13:31:03;98110.97;;;29.01;61.51
20023;BME280;10172;42.054;24.546;2022-09-09T13:33:38;98104.28;;;29.40;60.26
20023;BME280;10172;42.054;24.546;2022-09-09T13:36:07;98103.66;;;30.11;59.39
20023;BME280;10172;42.054;24.546;2022-09-09T13:41:23;98084.28;;;30.65;56.84
20023;BME280;10172;42.054;24.546;2022-09-09T13:43:50;98081.72;;;29.20;60.32
20023;BME280;10172;42.054;24.546;2022-09-09T13:46:37;98077.03;;;29.63;59.75
20023;BME280;10172;42.054;24.546;2022-09-09T13:51:43;98091.66;;;29.57;59.90
20023;BME280;10172;42.054;24.546;2022-09-09T13:54:14;98089.06;;;28.77;62.81
20023;BME280;10172;42.054;24.546;2022-09-09T13:56:41;98085.66;;;28.25;64.41
20023;BME280;10172;42.054;24.546;2022-09-09T13:59:18;98083.78;;;28.51;63.96
20023;BME280;10172;42.054;24.546;2022-09-09T14:01:45;98081.38;;;27.98;65.92
20023;BME280;10172;42.054;24.546;2022-09-09T14:04:10;98081.59;;;28.03;66.39
20023;BME280;10172;42.054;24.546;2022-09-09T14:06:37;98073.59;;;28.08;65.49
20023;BME280;10172;42.054;24.546;2022-09-09T14:09:04;98074.53;;;29.01;61.89
20023;BME280;10172;42.054;24.546;2022-09-09T14:11:30;98068.38;;;29.30;60.48
20023;BME280;10172;42.054;24.546;2022-09-09T14:13:55;98067.56;;;29.05;61.45
20023;BME280;10172;42.054;24.546;2022-09-09T14:16:21;98064.56;;;28.88;62.10
20023;BME280;10172;42.054;24.546;2022-09-09T14:18:47;98065.00;;;28.85;62.75
20023;BME280;10172;42.054;24.546;2022-09-09T14:21:13;98065.22;;;28.59;63.80
20023;BME280;10172;42.054;24.546;2022-09-09T14:23:39;98060.16;;;28.63;62.63
20023;BME280;10172;42.054;24.546;2022-09-09T14:26:05;98066.34;;;28.20;64.89
20023;BME280;10172;42.054;24.546;2022-09-09T14:28:32;98066.06;;;28.60;63.81
20023;BME280;10172;42.054;24.546;2022-09-09T14:31:02;98067.66;;;28.74;63.25
20023;BME280;10172;42.054;24.546;2022-09-09T14:33:29;98069.81;;;28.65;63.66
20023;BME280;10172;42.054;24.546;2022-09-09T14:36:02;98066.97;;;27.78;67.06
20023;BME280;10172;42.054;24.546;2022-09-09T14:38:36;98065.63;;;27.94;67.11
20023;BME280;10172;42.054;24.546;2022-09-09T14:41:12;98061.34;;;27.73;68.13
20023;BME280;10172;42.054;24.546;2022-09-09T14:43:38;98065.31;;;28.15;66.14
20023;BME280;10172;42.054;24.546;2022-09-09T14:46:13;98067.94;;;28.34;65.30
20023;BME280;10172;42.054;24.546;2022-09-09T14:48:39;98060.28;;;27.03;70.26
20023;BME280;10172;42.054;24.546;2022-09-09T14:51:33;98072.66;;;27.12;70.05
20023;BME280;10172;42.054;24.546;2022-09-09T14:53:59;98060.94;;;27.69;69.42
20023;BME280;10172;42.054;24.546;2022-09-09T14:56:28;98066.94;;;28.54;65.40
20023;BME280;10172;42.054;24.546;2022-09-09T14:58:56;98063.59;;;28.20;66.21
20023;BME280;10172;42.054;24.546;2022-09-09T15:01:22;98059.94;;;29.07;61.81